aviador You're here:

KJRB Decoded Metar

in
Report Time2017-05-29 03:35:00
UTC Time2017-05-29 03:58:37
Flight Rules vfr VFR
Wind070° at 08 kt
W.Rank070° ranks 12
Current wind is above 070° avg. (6.4)
Visibility9999 m
Phenomena:N/A
Clouds:Few 090 Hf
Expected CloudBase > 1,600 ft AGL from Temp-Dew spread
CeilingNone
Temp16°C
Dew Point12°C (77% RH)
AAT13.7°C
QNH1014 hPa
Raw Report
KJRB 290335Z 07008KT 10SM FEW090 16/12 A2993 RMK AO2 SLP299 PWINO
FZRANO RVRNO=

Extra information for KJRB:More info

Social comments